createdAt,value
2019-04-26T00:02:09.129Z,10.10
2019-04-26T00:04:37.818Z,10.20
2019-04-26T00:07:08.126Z,10.20
2019-04-26T00:09:38.334Z,10.20
2019-04-26T00:12:20.826Z,10.10
2019-04-26T00:15:07.025Z,10.10
2019-04-26T00:17:42.701Z,10.10
2019-04-26T00:20:10.624Z,10.10
2019-04-26T00:22:39.061Z,10.10
2019-04-26T00:25:08.295Z,10.10
2019-04-26T00:27:50.895Z,10.10
2019-04-26T00:30:19.142Z,10.10
2019-04-26T00:32:46.758Z,10.10
2019-04-26T00:35:14.292Z,10.10
2019-04-26T00:37:50.272Z,10.10
2019-04-26T00:40:18.284Z,10.10
2019-04-26T00:42:45.952Z,10.10
2019-04-26T00:45:14.913Z,10.10
2019-04-26T00:47:47.228Z,10.10
2019-04-26T00:50:15.378Z,10.10
2019-04-26T00:52:44.201Z,10.20
2019-04-26T00:55:11.814Z,10.20
2019-04-26T00:57:42.078Z,10.20
2019-04-26T01:00:11.566Z,10.20
2019-04-26T01:02:58.446Z,10.20
2019-04-26T01:05:26.782Z,10.20
2019-04-26T01:08:06.431Z,10.20
2019-04-26T01:10:33.991Z,10.20
2019-04-26T01:13:01.442Z,10.20
2019-04-26T01:15:28.842Z,10.10
2019-04-26T01:17:56.579Z,10.10
2019-04-26T01:20:26.838Z,10.10
2019-04-26T01:22:57.963Z,10.00
2019-04-26T01:25:44.431Z,10.00
2019-04-26T01:28:21.384Z,10.00
2019-04-26T01:30:50.915Z,10.00
2019-04-26T01:33:20.124Z,10.00
2019-04-26T01:35:54.506Z,10.00
2019-04-26T01:38:22.229Z,10.00
2019-04-26T01:40:52.413Z,10.00
2019-04-26T01:43:41.658Z,10.00
2019-04-26T01:46:23.156Z,10.00
2019-04-26T01:48:59.135Z,10.00
2019-04-26T01:51:34.715Z,10.00
2019-04-26T01:54:02.239Z,10.00
2019-04-26T01:56:34.733Z,10.00
2019-04-26T01:59:03.178Z,9.90
2019-04-26T02:01:42.936Z,9.90
2019-04-26T02:04:10.877Z,9.90
2019-04-26T02:06:38.281Z,9.80
2019-04-26T02:09:07.951Z,9.80
2019-04-26T02:11:36.081Z,9.80
2019-04-26T02:14:03.709Z,9.80
2019-04-26T02:16:31.311Z,9.70
2019-04-26T02:18:58.737Z,9.70
2019-04-26T02:21:30.457Z,9.70
2019-04-26T02:24:16.167Z,9.70
2019-04-26T02:26:46.005Z,9.80
2019-04-26T02:29:17.375Z,9.70
2019-04-26T02:31:50.451Z,9.70
2019-04-26T02:34:17.981Z,9.70
2019-04-26T02:36:57.354Z,9.60
2019-04-26T02:39:21.331Z,9.60
2019-04-26T02:41:52.945Z,9.60
2019-04-26T02:44:24.770Z,9.50
2019-04-26T02:47:43.390Z,9.40
2019-04-26T02:50:17.945Z,9.40
2019-04-26T02:52:55.706Z,9.40
2019-04-26T02:56:05.266Z,9.30
2019-04-26T02:58:39.963Z,9.40
2019-04-26T03:01:10.141Z,9.40
2019-04-26T03:03:39.603Z,9.40
2019-04-26T03:06:09.807Z,9.50
2019-04-26T03:08:39.375Z,9.50
2019-04-26T03:11:17.503Z,9.50
2019-04-26T03:13:53.647Z,9.60
2019-04-26T03:16:33.542Z,9.60
2019-04-26T03:19:21.268Z,9.70
2019-04-26T03:22:18.349Z,9.60
2019-04-26T03:25:04.046Z,9.70
2019-04-26T03:27:44.772Z,9.70
2019-04-26T03:30:52.283Z,9.70
2019-04-26T03:34:02.880Z,9.70
2019-04-26T03:36:56.354Z,9.70
2019-04-26T03:39:37.183Z,9.60
2019-04-26T03:42:44.046Z,9.60
2019-04-26T03:45:27.035Z,9.50
2019-04-26T03:48:39.931Z,9.40
2019-04-26T03:51:20.165Z,9.40
2019-04-26T03:54:00.341Z,9.30
2019-04-26T03:57:21.494Z,9.30
2019-04-26T04:00:25.449Z,9.20
2019-04-26T04:03:32.768Z,9.20
2019-04-26T04:06:12.489Z,9.10
2019-04-26T04:08:53.541Z,9.10
2019-04-26T04:11:27.420Z,9.10
2019-04-26T04:14:07.191Z,9.00
2019-04-26T04:17:29.324Z,9.00
2019-04-26T04:20:48.201Z,9.00
2019-04-26T04:23:48.873Z,8.90
2019-04-26T04:26:31.689Z,8.90
2019-04-26T04:29:42.827Z,8.90
2019-04-26T04:32:12.096Z,8.90
2019-04-26T04:34:45.513Z,8.80
2019-04-26T04:37:20.162Z,8.80
2019-04-26T04:40:11.193Z,8.80
2019-04-26T04:43:09.110Z,8.80
2019-04-26T04:46:10.255Z,8.90
2019-04-26T04:48:53.483Z,8.90
2019-04-26T04:51:35.556Z,8.80
2019-04-26T04:54:15.358Z,8.90
2019-04-26T04:57:20.255Z,8.90
2019-04-26T05:00:18.094Z,9.00
2019-04-26T05:02:58.888Z,9.00
2019-04-26T05:06:11.364Z,9.10
2019-04-26T05:09:03.111Z,9.10
2019-04-26T05:11:59.262Z,9.20
2019-04-26T05:18:07.176Z,9.30
2019-04-26T05:21:04.528Z,9.40
2019-04-26T05:23:59.622Z,9.40
2019-04-26T05:27:34.829Z,9.50
2019-04-26T05:30:28.136Z,9.60
2019-04-26T05:33:41.366Z,9.80
2019-04-26T05:39:53.352Z,9.90
2019-04-26T05:42:53.698Z,9.80
2019-04-26T05:46:02.831Z,9.70
2019-04-26T05:49:12.584Z,9.70
2019-04-26T05:52:29.225Z,9.70
2019-04-26T05:55:46.255Z,9.80
2019-04-26T05:58:45.514Z,9.90
2019-04-26T06:02:01.054Z,10.10
2019-04-26T06:05:31.294Z,10.20
2019-04-26T06:08:31.331Z,10.30
2019-04-26T06:11:08.278Z,10.30
2019-04-26T06:14:09.859Z,10.30
2019-04-26T06:17:14.818Z,10.30
2019-04-26T06:19:59.376Z,10.40
2019-04-26T06:22:47.679Z,10.50
2019-04-26T06:25:43.614Z,10.50
2019-04-26T06:28:42.106Z,10.60
2019-04-26T06:31:26.523Z,10.60
2019-04-26T06:34:04.260Z,10.70
2019-04-26T06:36:44.620Z,10.70
2019-04-26T06:39:31.473Z,10.80
2019-04-26T06:42:26.825Z,10.80
2019-04-26T06:45:47.838Z,10.80
2019-04-26T06:49:21.295Z,10.90
2019-04-26T06:51:52.851Z,11.10
2019-04-26T06:54:35.171Z,11.20
2019-04-26T06:57:54.207Z,11.30
2019-04-26T07:00:28.957Z,11.40
2019-04-26T07:03:58.323Z,11.50
2019-04-26T07:07:10.269Z,11.50
2019-04-26T07:10:04.543Z,11.60
2019-04-26T07:12:43.953Z,11.60
2019-04-26T07:15:35.491Z,11.60
2019-04-26T07:18:34.764Z,11.60
2019-04-26T07:21:27.571Z,11.70
2019-04-26T07:24:55.130Z,11.70
2019-04-26T07:28:11.827Z,11.80
2019-04-26T07:31:02.218Z,12.00
2019-04-26T07:34:05.161Z,11.90
2019-04-26T07:37:22.726Z,11.90
2019-04-26T07:40:48.680Z,12.00
2019-04-26T07:43:38.841Z,11.90
2019-04-26T07:46:27.376Z,12.10
2019-04-26T07:49:21.599Z,12.20
2019-04-26T07:52:30.654Z,12.30
2019-04-26T07:55:36.483Z,12.50
2019-04-26T07:58:45.983Z,12.60
2019-04-26T08:02:14.589Z,12.70
2019-04-26T08:04:49.865Z,12.90
2019-04-26T08:07:39.268Z,12.90
2019-04-26T08:10:12.376Z,13.10
2019-04-26T08:12:44.065Z,13.20
2019-04-26T08:15:41.307Z,13.20
2019-04-26T08:18:33.049Z,13.20
2019-04-26T08:21:15.190Z,13.20
2019-04-26T08:23:57.711Z,13.40
2019-04-26T08:26:29.197Z,13.50
2019-04-26T08:29:00.663Z,13.50
2019-04-26T08:31:31.320Z,13.60
2019-04-26T08:34:05.889Z,13.80
2019-04-26T08:36:43.522Z,14.00
2019-04-26T08:39:18.431Z,14.00
2019-04-26T08:41:48.481Z,14.10
2019-04-26T08:44:35.565Z,14.20
2019-04-26T08:47:26.127Z,14.10
2019-04-26T08:50:09.684Z,14.20
2019-04-26T08:52:38.312Z,14.30
2019-04-26T08:55:08.476Z,14.50
2019-04-26T08:57:39.800Z,14.70
2019-04-26T09:00:15.463Z,15.00
2019-04-26T09:03:12.064Z,15.00
2019-04-26T09:06:11.045Z,15.10
2019-04-26T09:08:43.614Z,15.10
2019-04-26T09:11:23.685Z,15.20
2019-04-26T09:13:46.270Z,15.30
2019-04-26T09:16:20.166Z,15.20
2019-04-26T09:18:53.146Z,15.10
2019-04-26T09:21:23.466Z,15.30
2019-04-26T09:24:08.407Z,15.50
2019-04-26T09:26:58.898Z,15.80
2019-04-26T09:29:55.108Z,16.10
2019-04-26T09:32:30.698Z,16.30
2019-04-26T09:34:58.447Z,16.40
2019-04-26T09:37:31.388Z,16.60
2019-04-26T09:40:09.602Z,16.80
2019-04-26T09:42:48.128Z,16.70
2019-04-26T09:45:41.408Z,16.60
2019-04-26T09:48:31.514Z,16.10
2019-04-26T09:50:59.435Z,16.00
2019-04-26T09:53:27.320Z,16.40
2019-04-26T09:55:59.361Z,16.50
2019-04-26T09:58:30.466Z,16.60
2019-04-26T10:00:56.329Z,16.80
2019-04-26T10:03:23.942Z,17.00
2019-04-26T10:05:52.091Z,17.30
2019-04-26T10:08:20.787Z,17.30
2019-04-26T10:10:48.282Z,17.50
2019-04-26T10:13:31.877Z,17.60
2019-04-26T10:16:18.926Z,17.50
2019-04-26T10:18:50.371Z,17.20
2019-04-26T10:21:17.956Z,16.80
2019-04-26T10:23:45.415Z,16.60
2019-04-26T10:26:13.123Z,16.40
2019-04-26T10:28:40.706Z,16.30
2019-04-26T10:31:08.292Z,16.30
2019-04-26T10:33:36.450Z,16.40
2019-04-26T10:36:04.398Z,16.50
2019-04-26T10:38:31.976Z,16.80
2019-04-26T10:40:59.871Z,16.70
2019-04-26T10:43:29.404Z,16.80
2019-04-26T10:46:04.712Z,16.90
2019-04-26T10:48:32.200Z,17.00
2019-04-26T10:51:03.340Z,17.00
2019-04-26T10:53:53.185Z,17.20
2019-04-26T10:56:45.934Z,17.20
2019-04-26T10:59:35.633Z,17.40
2019-04-26T11:02:08.914Z,17.40
2019-04-26T11:04:37.380Z,17.60
2019-04-26T11:07:05.930Z,17.90
2019-04-26T11:09:33.594Z,17.90
2019-04-26T11:12:01.318Z,18.10
2019-04-26T11:14:29.055Z,18.00
2019-04-26T11:17:17.632Z,18.20
2019-04-26T11:19:47.010Z,18.50
2019-04-26T11:22:14.817Z,18.60
2019-04-26T11:24:42.450Z,19.00
2019-04-26T11:27:11.226Z,19.10
2019-04-26T11:29:39.049Z,19.10
2019-04-26T11:32:06.674Z,19.10
2019-04-26T11:34:34.345Z,19.20
2019-04-26T11:37:03.886Z,19.20
2019-04-26T11:39:31.616Z,19.00
2019-04-26T11:41:59.188Z,18.80
2019-04-26T11:44:27.609Z,18.50
2019-04-26T11:47:03.301Z,18.50
2019-04-26T11:49:30.805Z,18.30
2019-04-26T11:52:02.342Z,18.00
2019-04-26T11:54:27.749Z,18.40
2019-04-26T11:56:58.685Z,18.80
2019-04-26T11:59:27.102Z,18.60
2019-04-26T12:01:55.607Z,18.40
2019-04-26T12:04:41.865Z,18.10
2019-04-26T12:07:18.695Z,17.90
2019-04-26T12:09:47.543Z,17.60
2019-04-26T12:12:15.151Z,18.10
2019-04-26T12:14:42.743Z,18.10
2019-04-26T12:17:22.489Z,18.00
2019-04-26T12:19:52.333Z,17.60
2019-04-26T12:22:19.499Z,17.60
2019-04-26T12:24:47.122Z,17.30
2019-04-26T12:27:15.220Z,17.10
2019-04-26T12:29:44.294Z,17.10
2019-04-26T12:32:12.185Z,17.10
2019-04-26T12:34:39.720Z,17.20
2019-04-26T12:37:19.935Z,17.40
2019-04-26T12:39:43.934Z,17.70
2019-04-26T12:42:12.296Z,17.60
2019-04-26T12:45:04.006Z,17.60
2019-04-26T12:47:54.575Z,17.50
2019-04-26T12:50:22.200Z,17.30
2019-04-26T12:52:51.503Z,17.40
2019-04-26T12:55:20.221Z,17.80
2019-04-26T12:57:47.999Z,18.30
2019-04-26T13:00:20.205Z,18.20
2019-04-26T13:02:50.123Z,17.90
2019-04-26T13:05:18.890Z,17.60
2019-04-26T13:08:01.843Z,17.50
2019-04-26T13:10:51.559Z,17.30
2019-04-26T13:13:26.539Z,17.70
2019-04-26T13:16:21.663Z,17.60
2019-04-26T13:18:49.231Z,17.50
2019-04-26T13:21:16.834Z,17.50
2019-04-26T13:23:44.485Z,17.60
2019-04-26T13:26:13.327Z,17.90
2019-04-26T13:28:40.940Z,18.30
2019-04-26T13:31:08.855Z,18.10
2019-04-26T13:33:36.606Z,18.30
2019-04-26T13:36:06.605Z,18.70
2019-04-26T13:38:34.162Z,18.90
2019-04-26T13:41:04.676Z,18.90
2019-04-26T13:43:31.446Z,18.80
2019-04-26T13:46:47.093Z,19.10
2019-04-26T13:49:24.763Z,19.40
2019-04-26T13:51:52.579Z,19.20
2019-04-26T13:54:20.977Z,19.20
2019-04-26T14:00:26.883Z,19.40
2019-04-26T14:02:57.348Z,19.90
2019-04-26T14:05:25.000Z,20.10
2019-04-26T14:07:53.159Z,19.70
2019-04-26T14:10:20.882Z,19.40
2019-04-26T14:12:50.037Z,19.70
2019-04-26T14:15:18.543Z,20.00
2019-04-26T14:17:46.188Z,20.20
2019-04-26T14:20:13.851Z,20.50
2019-04-26T14:22:49.247Z,20.20
2019-04-26T14:25:20.259Z,20.20
2019-04-26T14:28:00.344Z,20.20
2019-04-26T14:30:37.467Z,20.20
2019-04-26T14:33:04.825Z,20.40
2019-04-26T14:35:32.466Z,20.60
2019-04-26T14:38:00.084Z,20.50
2019-04-26T14:40:27.800Z,20.40
2019-04-26T14:43:06.536Z,20.30
2019-04-26T14:45:24.792Z,20.20
2019-04-26T14:48:20.666Z,20.20
2019-04-26T14:50:40.048Z,20.30
2019-04-26T14:53:07.646Z,20.30
2019-04-26T14:55:35.276Z,20.20
2019-04-26T14:58:02.872Z,20.30
2019-04-26T15:00:33.976Z,20.40
2019-04-26T15:03:13.198Z,20.30
2019-04-26T15:05:54.072Z,20.30
2019-04-26T15:08:22.616Z,20.30
2019-04-26T15:10:57.632Z,20.20
2019-04-26T15:13:20.999Z,20.30
2019-04-26T15:15:56.723Z,20.20
2019-04-26T15:18:24.346Z,20.30
2019-04-26T15:20:53.070Z,20.30
2019-04-26T15:23:25.214Z,20.10
2019-04-26T15:25:52.981Z,19.60
2019-04-26T15:28:22.150Z,19.60
2019-04-26T15:30:52.698Z,19.70
2019-04-26T15:33:22.419Z,19.70
2019-04-26T15:36:02.326Z,19.80
2019-04-26T15:38:35.212Z,20.00
2019-04-26T15:41:20.285Z,20.00
2019-04-26T15:44:05.696Z,20.20
2019-04-26T15:46:54.650Z,20.10
2019-04-26T15:49:56.668Z,20.00
2019-04-26T15:52:24.497Z,19.70
2019-04-26T15:54:53.802Z,19.30
2019-04-26T15:57:31.285Z,19.30
2019-04-26T15:59:59.304Z,19.50
2019-04-26T16:02:26.882Z,19.80
2019-04-26T16:04:54.556Z,19.60
2019-04-26T16:07:39.114Z,19.30
2019-04-26T16:10:06.796Z,19.00
2019-04-26T16:12:44.912Z,18.90
2019-04-26T16:15:14.861Z,19.10
2019-04-26T16:17:44.934Z,19.40
2019-04-26T16:20:13.661Z,19.50
2019-04-26T16:22:44.225Z,19.70
2019-04-26T16:25:16.048Z,20.00
2019-04-26T16:27:44.688Z,20.10
2019-04-26T16:30:37.464Z,20.10
2019-04-26T16:33:10.966Z,20.10
2019-04-26T16:35:38.600Z,20.00
2019-04-26T16:38:24.593Z,20.00
2019-04-26T16:40:53.531Z,19.70
2019-04-26T16:43:36.989Z,19.50
2019-04-26T16:45:51.963Z,19.20
2019-04-26T16:48:23.585Z,19.10
2019-04-26T16:50:49.909Z,18.90
2019-04-26T16:53:37.879Z,19.00
2019-04-26T16:55:52.418Z,19.20
2019-04-26T16:58:18.370Z,19.20
2019-04-26T17:00:51.518Z,19.20
2019-04-26T17:03:15.548Z,19.20
2019-04-26T17:05:48.390Z,19.30
2019-04-26T17:08:18.895Z,19.40
2019-04-26T17:10:42.615Z,19.50
2019-04-26T17:13:10.391Z,19.40
2019-04-26T17:15:38.023Z,19.40
2019-04-26T17:18:05.656Z,19.20
2019-04-26T17:20:33.978Z,18.90
2019-04-26T17:23:18.041Z,18.80
2019-04-26T17:26:03.986Z,18.80
2019-04-26T17:28:32.533Z,18.60
2019-04-26T17:31:02.044Z,18.50
2019-04-26T17:33:32.706Z,18.40
2019-04-26T17:36:02.707Z,18.30
2019-04-26T17:38:31.262Z,18.20
2019-04-26T17:41:00.565Z,18.00
2019-04-26T17:43:28.368Z,17.90
2019-04-26T17:45:56.007Z,17.80
2019-04-26T17:48:23.608Z,17.70
2019-04-26T17:50:51.238Z,17.60
2019-04-26T17:53:28.553Z,17.50
2019-04-26T17:55:57.481Z,17.40
2019-04-26T17:58:30.735Z,17.30
2019-04-26T18:00:56.462Z,17.30
2019-04-26T18:03:24.076Z,17.20
2019-04-26T18:05:57.273Z,17.10
2019-04-26T18:08:36.056Z,17.00
2019-04-26T18:10:51.460Z,17.00
2019-04-26T18:13:19.248Z,16.90
2019-04-26T18:15:48.517Z,16.80
2019-04-26T18:18:54.283Z,16.80
2019-04-26T18:21:40.645Z,16.70
2019-04-26T18:24:08.228Z,16.70
2019-04-26T18:26:35.810Z,16.70
2019-04-26T18:29:03.899Z,16.60
2019-04-26T18:31:33.476Z,16.40
2019-04-26T18:34:04.009Z,16.40
2019-04-26T18:36:34.173Z,16.40
2019-04-26T18:39:03.730Z,16.30
2019-04-26T18:41:31.399Z,16.20
2019-04-26T18:43:59.797Z,16.20
2019-04-26T18:46:42.936Z,16.10
2019-04-26T18:49:11.370Z,16.00
2019-04-26T18:51:41.902Z,15.90
2019-04-26T18:54:34.643Z,15.80
2019-04-26T18:57:09.499Z,15.80
2019-04-26T18:59:37.927Z,15.60
2019-04-26T19:02:05.825Z,15.60
2019-04-26T19:04:33.631Z,15.60
2019-04-26T19:07:15.995Z,15.50
2019-04-26T19:09:58.781Z,15.50
2019-04-26T19:12:14.318Z,15.40
2019-04-26T19:15:04.214Z,15.30
2019-04-26T19:18:04.387Z,15.30
2019-04-26T19:20:35.585Z,15.30
2019-04-26T19:23:05.641Z,15.20
2019-04-26T19:25:34.490Z,15.20
2019-04-26T19:28:04.294Z,15.10
2019-04-26T19:30:32.614Z,15.00
2019-04-26T19:33:01.919Z,14.90
2019-04-26T19:35:29.830Z,14.80
2019-04-26T19:37:57.744Z,14.70
2019-04-26T19:40:27.428Z,14.60
2019-04-26T19:42:57.465Z,14.70
2019-04-26T19:45:47.746Z,14.60
2019-04-26T19:48:37.771Z,14.60
2019-04-26T19:51:28.162Z,14.60
2019-04-26T19:54:12.545Z,14.50
2019-04-26T19:56:56.508Z,14.50
2019-04-26T19:59:27.511Z,14.40
2019-04-26T20:01:56.747Z,14.30
2019-04-26T20:04:24.513Z,14.20
2019-04-26T20:06:55.372Z,14.20
2019-04-26T20:09:26.374Z,14.10
2019-04-26T20:11:57.942Z,14.10
2019-04-26T20:14:29.914Z,14.00
2019-04-26T20:16:52.077Z,13.90
2019-04-26T20:19:31.565Z,13.90
2019-04-26T20:21:49.680Z,13.80
2019-04-26T20:24:19.392Z,13.80
2019-04-26T20:26:49.416Z,13.70
2019-04-26T20:29:17.048Z,13.70
2019-04-26T20:31:53.364Z,13.70
2019-04-26T20:34:21.819Z,13.70
2019-04-26T20:36:52.158Z,13.70
2019-04-26T20:39:20.915Z,13.70
2019-04-26T20:42:00.662Z,13.70
2019-04-26T20:44:23.860Z,13.70
2019-04-26T20:46:49.056Z,13.80
2019-04-26T20:49:19.175Z,13.70
2019-04-26T20:51:47.129Z,13.70
2019-04-26T20:54:16.352Z,13.80
2019-04-26T20:56:46.166Z,13.70
2019-04-26T20:59:16.689Z,13.70
2019-04-26T21:01:45.883Z,13.60
2019-04-26T21:04:17.570Z,13.60
2019-04-26T21:06:54.375Z,13.60
2019-04-26T21:09:22.564Z,13.60
2019-04-26T21:11:51.659Z,13.60
2019-04-26T21:14:19.205Z,13.60
2019-04-26T21:16:50.393Z,13.50
2019-04-26T21:19:19.266Z,13.50
2019-04-26T21:21:49.828Z,13.40
2019-04-26T21:24:23.154Z,13.40
2019-04-26T21:27:08.799Z,13.30
2019-04-26T21:30:04.527Z,13.30
2019-04-26T21:32:51.428Z,13.20
2019-04-26T21:35:25.014Z,13.20
2019-04-26T21:38:01.236Z,13.10
2019-04-26T21:40:35.919Z,13.00
2019-04-26T21:43:03.621Z,12.90
2019-04-26T21:45:34.010Z,12.80
2019-04-26T21:48:06.927Z,12.70
2019-04-26T21:50:38.620Z,12.60
2019-04-26T21:53:06.755Z,12.50
2019-04-26T21:55:38.394Z,12.40
2019-04-26T21:58:02.713Z,12.40
2019-04-26T22:00:53.813Z,12.40
2019-04-26T22:03:21.465Z,12.30
2019-04-26T22:05:55.242Z,12.20
2019-04-26T22:08:26.649Z,12.20
2019-04-26T22:10:54.330Z,12.10
2019-04-26T22:13:30.595Z,12.10
2019-04-26T22:16:09.504Z,12.00
2019-04-26T22:18:56.764Z,11.90
2019-04-26T22:21:33.917Z,11.80
2019-04-26T22:24:13.273Z,11.70
2019-04-26T22:26:44.533Z,11.60
2019-04-26T22:29:13.982Z,11.60
2019-04-26T22:31:41.428Z,11.50
2019-04-26T22:34:09.148Z,11.40
2019-04-26T22:36:43.995Z,11.40
2019-04-26T22:39:19.493Z,11.40
2019-04-26T22:41:46.197Z,11.30
2019-04-26T22:44:43.611Z,11.30
2019-04-26T22:47:21.024Z,11.30
2019-04-26T22:49:48.593Z,11.30
2019-04-26T22:52:18.709Z,11.30
2019-04-26T22:54:46.769Z,11.30
2019-04-26T22:57:16.186Z,11.30
2019-04-26T22:59:49.849Z,11.20
2019-04-26T23:02:18.294Z,11.20
2019-04-26T23:04:44.445Z,11.10
2019-04-26T23:07:13.589Z,11.10
2019-04-26T23:09:41.277Z,11.00
2019-04-26T23:12:28.318Z,10.90
2019-04-26T23:15:25.664Z,10.80
2019-04-26T23:18:08.245Z,10.80
2019-04-26T23:20:43.180Z,10.70
2019-04-26T23:23:10.771Z,10.70
2019-04-26T23:25:38.370Z,10.70
2019-04-26T23:28:07.904Z,10.60
2019-04-26T23:30:35.395Z,10.60
2019-04-26T23:33:02.906Z,10.50
2019-04-26T23:35:30.332Z,10.50
2019-04-26T23:38:01.041Z,10.50
2019-04-26T23:40:28.947Z,10.50
2019-04-26T23:43:02.856Z,10.50
2019-04-26T23:45:30.518Z,10.50
2019-04-26T23:47:58.296Z,10.50
2019-04-26T23:50:29.505Z,10.50
2019-04-26T23:52:55.265Z,10.60
2019-04-26T23:55:23.634Z,10.50
2019-04-26T23:57:51.139Z,10.60
